Time;durP1;ratioP1;P1;durP2;ratioP2;P2;SDS_P1;SDS_P2;PMS_P1;PMS_P2;Temp;Humidity;BMP_temperature;BMP_pressure;BME280_temperature;BME280_humidity;BME280_pressure;Samples;Min_cycle;Max_cycle;Signal;HPM_P1;HPM_P2
2023/12/29 00:01:41;;;;;;;0.40;0.40;;;;;;;7.87;77.43;97210.59;5009613;28;20050;-75
2023/12/29 00:04:10;;;;;;;0.25;0.25;;;;;;;7.89;77.30;97221.84;5014470;28;20501;-75
2023/12/29 00:06:38;;;;;;;0.25;0.25;;;;;;;7.91;77.57;97216.34;5013831;28;20107;-75
2023/12/29 00:09:20;;;;;;;0.20;0.20;;;;;;;7.88;77.66;97209.59;5016617;28;20416;-74
2023/12/29 00:11:48;;;;;;;0.43;0.43;;;;;;;7.92;77.45;97207.38;5012837;28;20143;-75
2023/12/29 00:14:15;;;;;;;0.38;0.38;;;;;;;7.84;77.94;97204.84;5012777;28;20133;-74
2023/12/29 00:16:44;;;;;;;0.10;0.10;;;;;;;7.84;77.59;97212.81;5012653;28;20080;-74
2023/12/29 00:19:13;;;;;;;0.20;0.20;;;;;;;7.86;77.27;97206.28;5012606;28;20548;-74
2023/12/29 00:21:41;;;;;;;0.13;0.13;;;;;;;7.85;77.61;97203.81;5011870;28;20045;-73
2023/12/29 00:24:08;;;;;;;0.30;0.30;;;;;;;7.83;77.57;97203.19;5013129;28;20044;-74
2023/12/29 00:26:36;;;;;;;0.50;0.50;;;;;;;7.80;77.38;97209.69;5007803;28;20420;-73
2023/12/29 00:29:05;;;;;;;0.10;0.10;;;;;;;7.76;77.44;97203.13;5012884;28;20483;-74
2023/12/29 00:31:33;;;;;;;0.35;0.35;;;;;;;7.80;77.33;97195.56;5017442;28;20484;-73
2023/12/29 00:34:01;;;;;;;0.40;0.40;;;;;;;7.72;77.45;97183.22;5011981;28;20046;-74
2023/12/29 00:36:30;;;;;;;0.20;0.20;;;;;;;7.71;77.74;97178.94;5010848;28;20045;-74
2023/12/29 00:38:57;;;;;;;0.32;0.32;;;;;;;7.68;77.86;97184.63;5025992;28;20045;-75
2023/12/29 00:41:25;;;;;;;0.20;0.20;;;;;;;7.72;77.66;97189.38;5006698;28;20054;-74
2023/12/29 00:43:53;;;;;;;0.28;0.28;;;;;;;7.78;77.23;97194.97;5030106;28;20149;-75
2023/12/29 00:46:21;;;;;;;0.30;0.30;;;;;;;7.78;77.08;97187.00;5014925;28;20046;-73
2023/12/29 00:48:48;;;;;;;0.22;0.22;;;;;;;7.83;76.91;97197.88;5009365;28;20046;-74
2023/12/29 00:51:16;;;;;;;0.13;0.13;;;;;;;7.91;76.34;97189.78;5014028;28;20069;-73
2023/12/29 00:53:45;;;;;;;0.30;0.30;;;;;;;7.95;76.34;97202.50;5011989;28;20061;-74
2023/12/29 00:56:13;;;;;;;0.28;0.28;;;;;;;7.90;76.46;97188.13;5012190;28;20129;-74
2023/12/29 00:58:40;;;;;;;0.10;0.10;;;;;;;7.94;76.17;97189.41;5010327;28;20133;-74
2023/12/29 01:01:11;;;;;;;0.20;0.20;;;;;;;7.98;76.13;97191.50;5009982;28;20046;-73
2023/12/29 01:03:39;;;;;;;0.40;0.40;;;;;;;7.97;76.20;97178.41;5002912;28;20050;-73
2023/12/29 01:06:07;;;;;;;0.25;0.25;;;;;;;8.02;76.19;97179.47;5010160;28;20509;-74
2023/12/29 01:08:34;;;;;;;0.30;0.30;;;;;;;8.00;75.94;97181.50;5007597;28;20460;-73
2023/12/29 01:11:04;;;;;;;0.20;0.20;;;;;;;7.98;75.86;97185.38;5011568;28;20072;-74
2023/12/29 01:13:32;;;;;;;0.20;0.20;;;;;;;7.99;75.96;97163.13;5010815;28;20041;-74
2023/12/29 01:15:59;;;;;;;0.20;0.20;;;;;;;7.93;76.46;97166.50;5011537;28;20033;-75
2023/12/29 01:18:29;;;;;;;0.20;0.20;;;;;;;7.95;76.17;97159.19;5002740;28;20039;-74
2023/12/29 01:20:56;;;;;;;0.30;0.30;;;;;;;7.95;75.94;97157.34;5012054;28;20141;-74
2023/12/29 01:23:24;;;;;;;0.20;0.20;;;;;;;7.95;75.77;97165.31;5011240;28;20536;-73
2023/12/29 01:25:52;;;;;;;0.25;0.25;;;;;;;8.02;75.42;97160.06;5008807;28;20041;-74
2023/12/29 01:28:21;;;;;;;0.20;0.20;;;;;;;8.05;75.37;97163.16;5013164;28;20038;-74
2023/12/29 01:30:49;;;;;;;0.30;0.30;;;;;;;7.96;75.92;97151.03;5010730;28;20042;-73
2023/12/29 01:33:16;;;;;;;0.35;0.35;;;;;;;7.98;75.91;97151.66;4999590;28;20142;-72
2023/12/29 01:35:44;;;;;;;0.20;0.20;;;;;;;7.99;76.12;97153.28;5006871;28;20084;-76
2023/12/29 01:38:12;;;;;;;0.30;0.30;;;;;;;8.00;76.09;97154.94;5008476;28;20058;-75
2023/12/29 01:40:45;;;;;;;0.20;0.20;;;;;;;7.96;76.75;97161.66;5008678;28;20066;-77
2023/12/29 01:43:13;;;;;;;0.32;0.32;;;;;;;8.09;76.40;97150.34;5003001;28;20037;-75
2023/12/29 01:45:42;;;;;;;0.20;0.20;;;;;;;8.04;77.20;97150.06;5009270;28;20169;-73
2023/12/29 01:48:23;;;;;;;0.22;0.22;;;;;;;7.95;77.84;97148.53;5010174;28;20045;-73
2023/12/29 01:50:51;;;;;;;0.20;0.20;;;;;;;8.01;77.64;97153.91;5010102;28;20605;-74
2023/12/29 01:53:19;;;;;;;0.30;0.30;;;;;;;7.98;78.13;97143.69;5012388;28;20116;-75
2023/12/29 01:55:57;;;;;;;0.30;0.30;;;;;;;8.02;78.20;97146.75;5008510;28;20137;-75
2023/12/29 01:58:27;;;;;;;0.10;0.10;;;;;;;7.97;78.79;97142.03;5010666;28;20081;-75
2023/12/29 02:00:56;;;;;;;0.20;0.20;;;;;;;7.93;79.06;97145.25;5008745;28;20046;-75
2023/12/29 02:03:24;;;;;;;0.32;0.32;;;;;;;7.98;79.37;97166.78;5000136;28;20097;-75
2023/12/29 02:05:52;;;;;;;0.70;0.70;;;;;;;8.00;79.53;97149.59;5009347;28;20512;-75
2023/12/29 02:08:20;;;;;;;0.25;0.25;;;;;;;8.02;79.57;97154.75;5013482;28;20046;-75
2023/12/29 02:10:48;;;;;;;0.30;0.30;;;;;;;8.03;79.46;97148.41;5009588;28;20050;-75
2023/12/29 02:13:15;;;;;;;0.20;0.20;;;;;;;8.10;79.25;97141.31;5012826;28;20038;-75
2023/12/29 02:15:43;;;;;;;0.28;0.28;;;;;;;8.07;79.27;97131.09;5009287;28;20140;-75
2023/12/29 02:18:15;;;;;;;0.22;0.22;;;;;;;8.05;79.01;97127.78;5010688;28;20038;-75
2023/12/29 02:20:43;;;;;;;0.95;0.95;;;;;;;7.97;79.48;97127.94;5011208;28;20346;-74
2023/12/29 02:23:11;;;;;;;0.20;0.20;;;;;;;7.98;79.73;97135.72;5009124;28;20088;-75
2023/12/29 02:25:41;;;;;;;0.30;0.30;;;;;;;8.01;79.28;97119.38;5002332;28;20051;-74
2023/12/29 02:28:12;;;;;;;0.30;0.30;;;;;;;8.00;78.20;97108.91;5015399;28;20126;-75
2023/12/29 02:30:46;;;;;;;0.30;0.30;;;;;;;8.02;77.40;97121.00;5006643;28;20037;-74
2023/12/29 02:33:20;;;;;;;0.20;0.20;;;;;;;8.13;77.31;97118.84;5005711;28;20555;-75
2023/12/29 02:35:49;;;;;;;0.22;0.22;;;;;;;8.10;77.04;97115.56;5009596;28;20477;-74
2023/12/29 02:38:17;;;;;;;0.20;0.20;;;;;;;7.98;77.68;97105.66;5015538;28;20133;-74
2023/12/29 02:40:46;;;;;;;0.20;0.20;;;;;;;8.01;77.43;97105.25;5009023;28;20092;-75
2023/12/29 02:43:15;;;;;;;0.20;0.20;;;;;;;7.95;77.78;97116.66;5007622;28;20049;-74
2023/12/29 02:45:43;;;;;;;0.28;0.28;;;;;;;7.94;77.81;97104.38;5012082;28;20141;-75
2023/12/29 02:48:10;;;;;;;0.22;0.22;;;;;;;8.00;77.31;97107.09;5016355;28;20525;-73
2023/12/29 02:50:39;;;;;;;0.20;0.20;;;;;;;8.01;77.23;97121.19;5012277;28;20029;-74
2023/12/29 02:53:07;;;;;;;0.30;0.30;;;;;;;8.01;75.82;97113.22;5012732;28;20046;-75
2023/12/29 02:55:35;;;;;;;0.32;0.32;;;;;;;7.99;75.00;97118.72;5013391;28;20046;-74
2023/12/29 02:58:04;;;;;;;0.22;0.22;;;;;;;8.03;73.82;97114.69;5014143;28;20038;-73
2023/12/29 03:00:33;;;;;;;0.10;0.10;;;;;;;8.02;74.00;97113.03;5012365;28;20050;-74
2023/12/29 03:03:00;;;;;;;0.20;0.20;;;;;;;8.04;73.40;97113.69;5007938;28;20487;-74
2023/12/29 03:05:28;;;;;;;0.22;0.22;;;;;;;8.08;72.97;97112.28;5008416;28;20041;-75
2023/12/29 03:07:57;;;;;;;0.30;0.30;;;;;;;8.07;72.99;97118.63;5010796;28;20042;-74
2023/12/29 03:10:25;;;;;;;0.10;0.10;;;;;;;8.07;73.24;97128.44;5010920;28;20415;-73
2023/12/29 03:12:54;;;;;;;0.30;0.30;;;;;;;8.08;73.90;97122.09;5011318;28;20061;-74
2023/12/29 03:15:23;;;;;;;0.28;0.28;;;;;;;8.12;73.74;97118.03;5024525;28;20528;-74
2023/12/29 03:17:51;;;;;;;0.20;0.20;;;;;;;8.11;73.86;97116.38;5016559;28;20539;-74
2023/12/29 03:20:18;;;;;;;0.28;0.28;;;;;;;8.13;73.89;97118.84;5011566;28;20076;-73
2023/12/29 03:22:47;;;;;;;0.20;0.20;;;;;;;8.11;74.46;97121.69;5006115;28;20051;-74
2023/12/29 03:25:15;;;;;;;0.20;0.20;;;;;;;8.08;74.35;97114.13;5004844;28;20074;-74
2023/12/29 03:27:42;;;;;;;0.20;0.20;;;;;;;8.14;74.25;97117.84;5014447;28;20061;-73
2023/12/29 03:30:11;;;;;;;0.52;0.52;;;;;;;8.07;74.53;97112.50;5003533;28;20422;-74
2023/12/29 03:32:40;;;;;;;0.32;0.32;;;;;;;8.07;74.42;97105.34;5010700;28;20057;-74
2023/12/29 03:35:08;;;;;;;0.40;0.40;;;;;;;8.07;74.77;97108.00;5013271;28;20061;-74
2023/12/29 03:37:36;;;;;;;0.20;0.20;;;;;;;8.13;74.60;97102.91;5011518;28;20401;-74
2023/12/29 03:40:05;;;;;;;0.30;0.30;;;;;;;8.14;74.75;97102.72;5006706;28;20051;-74
2023/12/29 03:42:33;;;;;;;0.30;0.30;;;;;;;8.13;74.53;97101.06;4999040;28;20141;-75
2023/12/29 03:45:01;;;;;;;0.10;0.10;;;;;;;8.19;74.69;97102.16;5005274;28;20069;-75
2023/12/29 03:47:30;;;;;;;0.25;0.25;;;;;;;8.29;74.30;97102.66;5004587;28;20138;-75
2023/12/29 03:49:59;;;;;;;0.22;0.22;;;;;;;8.15;74.85;97107.03;5011033;28;20490;-74
2023/12/29 03:52:27;;;;;;;0.30;0.30;;;;;;;8.15;75.02;97095.56;5012844;28;20038;-74
2023/12/29 03:54:54;;;;;;;0.20;0.20;;;;;;;8.33;74.38;97107.41;5005920;28;20041;-74
2023/12/29 03:57:22;;;;;;;0.10;0.10;;;;;;;8.31;74.32;97105.91;5000843;28;20078;-75
2023/12/29 03:59:49;;;;;;;0.25;0.25;;;;;;;8.37;73.14;97106.03;5011160;28;20065;-75
2023/12/29 04:02:17;;;;;;;0.30;0.30;;;;;;;8.27;73.08;97105.50;5012042;28;20045;-75
2023/12/29 04:04:45;;;;;;;0.30;0.30;;;;;;;8.18;73.14;97095.19;5011733;28;20485;-75
2023/12/29 04:07:14;;;;;;;0.25;0.25;;;;;;;8.21;72.88;97084.97;5011514;28;20060;-75
2023/12/29 04:09:42;;;;;;;0.15;0.15;;;;;;;8.26;71.63;97082.59;5012288;28;20066;-74
2023/12/29 04:12:09;;;;;;;0.20;0.20;;;;;;;8.21;71.84;97086.81;5005003;28;20551;-73
2023/12/29 04:14:37;;;;;;;0.20;0.20;;;;;;;8.17;71.83;97078.44;5014010;28;20472;-74
2023/12/29 04:17:13;;;;;;;0.25;0.25;;;;;;;8.15;71.74;97075.13;5009348;28;20549;-74
2023/12/29 04:19:41;;;;;;;0.15;0.15;;;;;;;8.17;71.72;97067.78;5009604;28;20485;-74
2023/12/29 04:22:09;;;;;;;0.30;0.30;;;;;;;8.17;71.68;97077.59;5007448;28;20049;-75
2023/12/29 04:24:39;;;;;;;0.22;0.22;;;;;;;8.16;71.86;97071.47;5008073;28;20045;-75
2023/12/29 04:27:07;;;;;;;0.20;0.20;;;;;;;8.11;71.42;97076.53;5012899;28;20069;-74
2023/12/29 04:29:34;;;;;;;0.20;0.20;;;;;;;8.10;71.54;97090.81;5012180;28;20756;-74
2023/12/29 04:32:02;;;;;;;0.30;0.30;;;;;;;8.08;71.08;97091.03;5011507;28;20046;-74
2023/12/29 04:34:30;;;;;;;0.30;0.30;;;;;;;8.06;70.96;97093.06;5011039;28;20531;-75
2023/12/29 04:36:57;;;;;;;0.30;0.30;;;;;;;8.06;70.58;97101.03;5011054;28;20088;-74
2023/12/29 04:39:26;;;;;;;0.30;0.30;;;;;;;8.07;69.84;97097.38;5012034;28;20049;-75
2023/12/29 04:41:55;;;;;;;0.30;0.30;;;;;;;8.10;69.68;97099.63;5012123;28;20501;-74
2023/12/29 04:44:23;;;;;;;0.17;0.17;;;;;;;8.07;69.54;97093.88;5016536;28;20065;-75
2023/12/29 04:46:51;;;;;;;0.20;0.20;;;;;;;8.08;69.89;97083.06;5013289;28;20054;-74
2023/12/29 04:49:18;;;;;;;0.28;0.28;;;;;;;8.11;69.53;97089.81;5009790;28;20138;-74
2023/12/29 04:51:48;;;;;;;0.30;0.30;;;;;;;8.05;69.71;97075.47;5011699;28;20121;-74
2023/12/29 04:54:16;;;;;;;0.22;0.22;;;;;;;8.04;69.93;97073.00;5013103;28;20065;-75
2023/12/29 04:56:43;;;;;;;0.10;0.10;;;;;;;8.06;69.43;97079.78;5011453;28;20051;-74
2023/12/29 04:59:12;;;;;;;0.30;0.30;;;;;;;8.09;69.57;97081.22;5011590;28;20057;-75
2023/12/29 05:01:40;;;;;;;0.10;0.10;;;;;;;8.06;69.54;97071.78;5011638;28;20053;-75
2023/12/29 05:04:07;;;;;;;0.30;0.30;;;;;;;8.05;69.62;97083.44;5011259;28;20057;-74
2023/12/29 05:06:35;;;;;;;0.30;0.30;;;;;;;8.03;69.68;97071.34;5004342;28;20050;-74
2023/12/29 05:09:03;;;;;;;0.30;0.30;;;;;;;8.06;69.80;97086.91;5001776;28;20498;-75
2023/12/29 05:11:32;;;;;;;0.30;0.30;;;;;;;8.10;69.82;97074.88;5020073;22;20054;-72
2023/12/29 05:14:00;;;;;;;0.30;0.30;;;;;;;8.07;69.69;97085.91;5004441;28;20042;-73
2023/12/29 05:16:28;;;;;;;0.38;0.38;;;;;;;8.11;69.86;97089.81;5007194;28;20052;-72
2023/12/29 05:18:56;;;;;;;0.30;0.30;;;;;;;8.12;70.32;97083.47;5011922;28;20420;-72
2023/12/29 05:21:25;;;;;;;0.20;0.20;;;;;;;8.09;70.38;97079.41;5010921;28;20041;-72
2023/12/29 05:23:53;;;;;;;0.32;0.32;;;;;;;8.15;70.59;97082.28;5004242;28;20042;-72
2023/12/29 05:26:21;;;;;;;0.20;0.20;;;;;;;8.20;70.59;97079.88;5010163;28;20481;-73
2023/12/29 05:28:48;;;;;;;0.30;0.30;;;;;;;8.20;70.51;97096.63;5011275;28;20049;-73
2023/12/29 05:31:16;;;;;;;0.30;0.30;;;;;;;8.10;71.20;97086.31;5006229;28;20506;-72
2023/12/29 05:33:45;;;;;;;0.20;0.20;;;;;;;8.15;70.33;97088.44;5010726;28;20045;-72
2023/12/29 05:36:13;;;;;;;0.30;0.30;;;;;;;8.11;70.60;97079.19;5006445;28;20042;-72
2023/12/29 05:38:41;;;;;;;0.20;0.20;;;;;;;8.12;70.54;97083.47;5009759;28;20046;-72
2023/12/29 05:41:08;;;;;;;0.20;0.20;;;;;;;8.08;70.60;97080.41;5000987;28;20104;-72
2023/12/29 05:43:36;;;;;;;0.20;0.20;;;;;;;8.25;70.18;97086.25;5009166;28;20060;-71
2023/12/29 05:46:10;;;;;;;0.30;0.30;;;;;;;8.29;69.71;97087.53;5008016;28;20041;-71
2023/12/29 05:48:37;;;;;;;0.20;0.20;;;;;;;8.18;70.19;97087.22;5010662;28;20064;-71
2023/12/29 05:51:09;;;;;;;0.30;0.30;;;;;;;8.23;69.33;97087.47;5010111;28;20080;-71
2023/12/29 05:53:37;;;;;;;0.30;0.30;;;;;;;8.25;68.89;97075.63;5009258;28;20046;-71
2023/12/29 05:56:05;;;;;;;0.25;0.25;;;;;;;8.21;69.11;97055.75;5011027;28;20042;-71
2023/12/29 05:58:33;;;;;;;0.30;0.30;;;;;;;8.21;68.88;97060.25;5010689;28;20050;-73
2023/12/29 06:01:01;;;;;;;0.30;0.30;;;;;;;8.25;69.18;97074.81;5007747;28;20062;-71
2023/12/29 06:03:29;;;;;;;0.28;0.28;;;;;;;8.24;69.39;97068.66;5009788;28;20073;-73
2023/12/29 06:05:56;;;;;;;0.10;0.10;;;;;;;8.27;69.96;97059.47;5009356;28;20493;-71
2023/12/29 06:08:25;;;;;;;0.28;0.28;;;;;;;8.27;70.19;97049.69;5006405;28;20045;-74
2023/12/29 06:10:53;;;;;;;0.30;0.30;;;;;;;8.34;70.17;97047.91;5009856;28;20390;-73
2023/12/29 06:13:21;;;;;;;0.30;0.30;;;;;;;8.25;70.30;97048.22;5009214;28;20073;-71
2023/12/29 06:15:48;;;;;;;0.30;0.30;;;;;;;8.30;69.96;97057.28;5007203;28;20044;-71
2023/12/29 06:18:16;;;;;;;0.20;0.20;;;;;;;8.24;70.07;97058.03;5010919;28;20425;-71
2023/12/29 06:20:44;;;;;;;0.43;0.43;;;;;;;8.26;70.06;97063.16;5013382;28;20117;-71
2023/12/29 06:23:11;;;;;;;0.30;0.30;;;;;;;8.24;70.32;97060.69;5012576;28;20038;-72
2023/12/29 06:25:41;;;;;;;0.20;0.20;;;;;;;8.26;70.42;97060.50;5008498;28;20060;-71
2023/12/29 06:28:09;;;;;;;0.30;0.30;;;;;;;8.17;70.66;97054.50;5014739;28;20041;-71
2023/12/29 06:30:36;;;;;;;0.20;0.20;;;;;;;8.30;70.24;97045.81;5010666;28;20049;-71
2023/12/29 06:33:05;;;;;;;0.40;0.40;;;;;;;8.21;70.55;97049.59;5012298;28;20045;-73
2023/12/29 06:35:32;;;;;;;0.20;0.20;;;;;;;8.17;70.61;97030.59;5011987;28;20050;-71
2023/12/29 06:38:00;;;;;;;0.35;0.35;;;;;;;8.19;70.51;97033.06;5010223;28;20042;-70
2023/12/29 06:40:28;;;;;;;0.30;0.30;;;;;;;8.15;70.51;97027.28;5010583;28;20101;-77
2023/12/29 06:42:57;;;;;;;0.32;0.32;;;;;;;8.17;70.90;97019.13;5012864;28;20046;-72
2023/12/29 06:45:25;;;;;;;0.38;0.38;;;;;;;8.03;71.35;97013.72;5011369;28;20046;-71
2023/12/29 06:47:52;;;;;;;0.30;0.30;;;;;;;8.00;71.20;97008.78;5013408;28;20046;-71
2023/12/29 06:50:20;;;;;;;0.10;0.10;;;;;;;7.97;71.30;96998.56;5013684;28;20046;-72
2023/12/29 06:52:47;;;;;;;0.20;0.20;;;;;;;7.96;71.33;96993.41;5013128;28;20050;-72
2023/12/29 06:55:15;;;;;;;0.13;0.13;;;;;;;7.97;71.38;97009.19;5011626;28;20046;-71
2023/12/29 06:57:43;;;;;;;0.20;0.20;;;;;;;7.97;71.33;97019.81;5007799;28;20050;-70
2023/12/29 07:00:13;;;;;;;0.30;0.30;;;;;;;7.92;71.57;97013.41;5016469;28;20060;-71
2023/12/29 07:02:40;;;;;;;0.30;0.30;;;;;;;7.93;71.87;97023.84;5012565;28;20140;-72
2023/12/29 07:05:08;;;;;;;0.20;0.20;;;;;;;7.96;71.77;97027.97;5015553;28;20517;-71
2023/12/29 07:07:37;;;;;;;0.55;0.55;;;;;;;7.91;72.09;97039.16;5012077;28;20042;-71
2023/12/29 07:10:06;;;;;;;0.20;0.20;;;;;;;7.88;72.39;97036.91;5013069;28;20100;-71
2023/12/29 07:12:34;;;;;;;0.10;0.10;;;;;;;7.89;72.52;97061.63;5007846;28;20034;-71
2023/12/29 07:15:01;;;;;;;0.22;0.22;;;;;;;7.88;72.63;97071.44;5006576;28;20095;-71
2023/12/29 07:17:30;;;;;;;0.20;0.20;;;;;;;7.93;72.65;97082.31;5006771;28;20100;-71
2023/12/29 07:19:58;;;;;;;0.30;0.30;;;;;;;7.90;72.42;97081.84;5010867;28;20065;-72
2023/12/29 07:22:26;;;;;;;0.40;0.40;;;;;;;8.01;72.57;97076.03;5005842;28;20042;-72
2023/12/29 07:24:54;;;;;;;0.20;0.20;;;;;;;7.99;71.98;97070.09;5007869;28;20485;-71
2023/12/29 07:27:21;;;;;;;0.20;0.20;;;;;;;7.97;71.95;97067.63;5008038;28;20046;-73
2023/12/29 07:29:49;;;;;;;0.22;0.22;;;;;;;7.97;72.17;97050.88;5014633;28;20050;-72
2023/12/29 07:32:16;;;;;;;0.30;0.30;;;;;;;7.92;72.29;97024.03;5008039;28;20500;-71
2023/12/29 07:34:45;;;;;;;0.20;0.20;;;;;;;7.98;71.87;97033.91;5000462;28;20056;-70
2023/12/29 07:37:13;;;;;;;0.25;0.25;;;;;;;8.02;71.65;97062.56;5009990;28;20047;-70
2023/12/29 07:39:41;;;;;;;0.35;0.35;;;;;;;8.05;71.37;97062.19;5006347;28;20069;-69
2023/12/29 07:42:08;;;;;;;0.30;0.30;;;;;;;8.16;70.68;97060.00;5009503;28;20053;-71
2023/12/29 07:44:37;;;;;;;0.30;0.30;;;;;;;8.19;70.50;97060.47;5013793;28;20077;-73
2023/12/29 07:47:05;;;;;;;0.20;0.20;;;;;;;8.09;71.09;97086.53;5007461;28;20493;-73
2023/12/29 07:49:33;;;;;;;0.30;0.30;;;;;;;8.09;70.93;97086.53;5007302;28;20124;-72
2023/12/29 07:52:02;;;;;;;0.20;0.20;;;;;;;8.15;70.88;97083.09;5011206;28;20104;-70
2023/12/29 07:54:29;;;;;;;0.28;0.28;;;;;;;8.11;70.96;97084.50;5013244;28;20436;-71
2023/12/29 07:56:57;;;;;;;0.20;0.20;;;;;;;8.14;70.98;97081.47;5012205;28;20056;-72
2023/12/29 07:59:25;;;;;;;0.20;0.20;;;;;;;8.12;70.36;97088.78;5015017;28;20044;-71
2023/12/29 08:01:52;;;;;;;0.20;0.20;;;;;;;8.17;70.58;97088.25;5011074;28;20444;-72
2023/12/29 08:04:20;;;;;;;0.20;0.20;;;;;;;8.18;70.29;97088.06;5005075;28;20343;-71
2023/12/29 08:06:48;;;;;;;0.30;0.30;;;;;;;8.18;70.11;97085.38;5011312;28;20069;-73
2023/12/29 08:09:17;;;;;;;0.10;0.10;;;;;;;8.22;70.01;97081.31;5006947;28;20104;-73
2023/12/29 08:11:44;;;;;;;0.20;0.20;;;;;;;8.20;70.08;97072.72;5014874;28;20133;-73
2023/12/29 08:14:12;;;;;;;0.30;0.30;;;;;;;8.15;70.29;97085.75;5011977;28;20055;-72
2023/12/29 08:16:40;;;;;;;0.35;0.35;;;;;;;8.20;70.22;97096.63;5017082;28;20042;-72
2023/12/29 08:19:09;;;;;;;0.28;0.28;;;;;;;8.19;70.07;97095.00;5012637;28;20049;-72
2023/12/29 08:21:38;;;;;;;0.20;0.20;;;;;;;8.20;70.22;97064.72;5007068;28;20104;-72
2023/12/29 08:24:06;;;;;;;0.22;0.22;;;;;;;8.21;70.06;97095.63;5013490;28;20054;-72
2023/12/29 08:26:35;;;;;;;0.20;0.20;;;;;;;8.24;70.49;97110.38;5014383;28;20095;-72
2023/12/29 08:29:02;;;;;;;0.35;0.35;;;;;;;8.21;70.50;97106.25;5012427;28;20053;-72
2023/12/29 08:31:30;;;;;;;0.30;0.30;;;;;;;8.29;70.49;97110.63;5015097;28;20074;-74
2023/12/29 08:33:58;;;;;;;0.30;0.30;;;;;;;8.26;70.38;97108.34;5013015;28;21179;-72
2023/12/29 08:36:25;;;;;;;0.30;0.30;;;;;;;8.25;70.11;97117.34;5011866;28;20481;-73
2023/12/29 08:38:53;;;;;;;0.30;0.30;;;;;;;8.24;70.25;97099.72;5010678;28;20046;-73
2023/12/29 08:41:21;;;;;;;0.32;0.32;;;;;;;8.28;70.50;97108.97;5017110;28;20046;-73
2023/12/29 08:43:50;;;;;;;0.28;0.28;;;;;;;8.23;70.47;97117.53;5012498;28;20052;-74
2023/12/29 08:46:17;;;;;;;0.35;0.35;;;;;;;8.26;70.26;97114.50;5011990;28;20034;-74
2023/12/29 08:48:47;;;;;;;0.40;0.40;;;;;;;8.27;70.27;97123.28;5011962;28;20069;-73
2023/12/29 08:51:14;;;;;;;0.25;0.25;;;;;;;8.27;70.24;97113.47;5010205;28;20045;-73
2023/12/29 08:53:42;;;;;;;0.30;0.30;;;;;;;8.26;70.35;97126.97;5007486;28;20045;-77
2023/12/29 08:56:10;;;;;;;0.30;0.30;;;;;;;8.22;70.59;97123.84;5010380;28;20516;-73
2023/12/29 08:58:40;;;;;;;0.22;0.22;;;;;;;8.21;70.63;97116.88;5009213;28;20148;-73
2023/12/29 09:01:11;;;;;;;0.20;0.20;;;;;;;8.27;70.63;97129.44;5008662;28;20056;-73
2023/12/29 09:03:39;;;;;;;0.32;0.32;;;;;;;8.28;70.56;97120.44;5011225;28;20046;-73
2023/12/29 09:06:08;;;;;;;0.30;0.30;;;;;;;8.36;70.53;97120.31;5004681;28;20044;-72
2023/12/29 09:08:36;;;;;;;0.20;0.20;;;;;;;8.25;70.99;97114.69;5012299;28;20124;-71
2023/12/29 09:11:05;;;;;;;0.30;0.30;;;;;;;8.34;70.66;97127.66;5011896;28;20417;-71
2023/12/29 09:13:32;;;;;;;0.10;0.10;;;;;;;8.29;70.66;97121.28;5019214;28;20050;-73
2023/12/29 09:16:00;;;;;;;0.38;0.38;;;;;;;8.31;70.97;97124.53;5010764;28;20133;-70
2023/12/29 09:18:29;;;;;;;0.30;0.30;;;;;;;8.32;70.89;97120.91;5012111;28;20042;-73
2023/12/29 09:20:59;;;;;;;0.20;0.20;;;;;;;8.34;70.75;97124.19;5005943;28;20706;-73
2023/12/29 09:23:27;;;;;;;0.20;0.20;;;;;;;8.46;70.51;97114.69;5011841;28;20049;-72
2023/12/29 09:25:55;;;;;;;0.30;0.30;;;;;;;8.39;70.69;97103.19;5007973;28;20042;-71
2023/12/29 09:28:23;;;;;;;0.60;0.30;;;;;;;8.36;70.75;97099.06;5012172;28;20046;-71
2023/12/29 09:30:51;;;;;;;0.10;0.10;;;;;;;8.37;70.70;97116.66;5013198;28;20117;-71
2023/12/29 09:33:18;;;;;;;0.30;0.30;;;;;;;8.36;70.66;97112.34;5013695;28;20053;-71
2023/12/29 09:35:47;;;;;;;0.20;0.20;;;;;;;8.37;70.65;97121.97;5017902;28;20045;-72
2023/12/29 09:38:15;;;;;;;0.25;0.25;;;;;;;8.48;70.37;97106.50;5030293;28;20116;-71
2023/12/29 09:40:43;;;;;;;0.10;0.10;;;;;;;8.47;70.35;97108.34;5014050;28;20045;-72
2023/12/29 09:43:11;;;;;;;0.20;0.20;;;;;;;8.48;70.41;97101.19;5014280;28;20073;-71
2023/12/29 09:45:38;;;;;;;0.20;0.20;;;;;;;8.51;70.35;97114.09;5013419;28;20116;-71
2023/12/29 09:48:08;;;;;;;0.30;0.30;;;;;;;8.48;70.46;97102.00;5006472;28;20125;-72
2023/12/29 09:50:37;;;;;;;0.28;0.28;;;;;;;8.53;70.41;97106.72;5010809;28;20068;-71
2023/12/29 09:53:06;;;;;;;0.20;0.20;;;;;;;8.52;70.44;97113.88;5006418;28;20120;-72
2023/12/29 09:55:34;;;;;;;0.30;0.30;;;;;;;8.56;69.99;97109.84;5004961;28;20137;-71
2023/12/29 09:58:02;;;;;;;0.30;0.30;;;;;;;8.60;70.33;97119.09;5010983;28;20117;-72
2023/12/29 10:00:32;;;;;;;0.30;0.30;;;;;;;8.57;70.35;97111.50;5016400;28;20077;-71
2023/12/29 10:03:01;;;;;;;0.30;0.30;;;;;;;8.59;70.52;97116.63;5011295;28;20045;-71
2023/12/29 10:05:28;;;;;;;0.30;0.30;;;;;;;8.57;70.32;97113.31;5020274;28;20042;-72
2023/12/29 10:07:57;;;;;;;0.57;0.35;;;;;;;8.58;70.43;97109.66;5012324;28;20648;-71
2023/12/29 10:10:27;;;;;;;0.20;0.20;;;;;;;8.60;70.71;97112.94;5011530;28;20052;-71
2023/12/29 10:12:55;;;;;;;0.20;0.20;;;;;;;8.64;70.30;97116.84;5010821;28;20096;-73
2023/12/29 10:15:32;;;;;;;0.28;0.28;;;;;;;8.68;70.42;97120.78;5010892;28;20046;-73
2023/12/29 10:18:07;;;;;;;0.25;0.25;;;;;;;8.65;70.44;97114.00;5012051;28;20088;-71
2023/12/29 10:20:45;;;;;;;0.30;0.30;;;;;;;8.69;70.52;97111.78;5009422;28;20045;-72
2023/12/29 10:23:14;;;;;;;0.10;0.10;;;;;;;8.71;70.54;97107.09;4996486;28;20042;-72
2023/12/29 10:25:43;;;;;;;0.20;0.20;;;;;;;8.72;70.24;97106.06;5007934;28;20042;-76
2023/12/29 10:28:11;;;;;;;0.20;0.20;;;;;;;8.74;70.39;97090.72;5008705;28;20046;-73
2023/12/29 10:30:40;;;;;;;0.30;0.30;;;;;;;8.85;70.03;97095.50;5020040;28;20069;-71
2023/12/29 10:33:08;;;;;;;0.22;0.22;;;;;;;8.76;70.25;97099.31;5021275;28;20489;-72
2023/12/29 10:35:37;;;;;;;0.30;0.30;;;;;;;8.78;70.21;97102.63;5009356;28;20057;-71
2023/12/29 10:38:09;;;;;;;0.25;0.25;;;;;;;8.87;69.88;97100.63;5011418;28;20108;-73
2023/12/29 10:40:37;;;;;;;0.20;0.20;;;;;;;8.84;70.26;97091.19;5010289;28;20069;-71
2023/12/29 10:43:07;;;;;;;0.10;0.10;;;;;;;8.80;70.47;97079.31;5015236;28;20053;-71
2023/12/29 10:45:36;;;;;;;0.20;0.20;;;;;;;8.82;70.38;97082.59;5016933;28;20425;-71
2023/12/29 10:48:04;;;;;;;0.20;0.20;;;;;;;8.90;69.88;97082.44;5013689;28;20042;-71
2023/12/29 10:50:43;;;;;;;0.20;0.20;;;;;;;8.96;69.75;97080.81;5013331;28;20096;-71
2023/12/29 10:53:12;;;;;;;0.30;0.30;;;;;;;8.94;69.44;97082.84;5014251;28;20408;-71
2023/12/29 10:55:39;;;;;;;0.22;0.22;;;;;;;8.94;69.58;97086.31;5013582;28;20052;-73
2023/12/29 10:58:08;;;;;;;0.30;0.30;;;;;;;8.96;69.35;97083.47;5015466;28;20092;-71
2023/12/29 11:00:36;;;;;;;0.20;0.20;;;;;;;8.93;69.53;97084.69;5012133;28;20485;-72
2023/12/29 11:03:04;;;;;;;0.15;0.15;;;;;;;8.93;69.73;97078.56;5015406;28;20049;-71
2023/12/29 11:05:33;;;;;;;0.32;0.32;;;;;;;8.95;69.96;97076.50;5010156;28;20042;-73
2023/12/29 11:08:01;;;;;;;0.20;0.20;;;;;;;8.96;69.96;97096.78;5014160;28;20046;-71
2023/12/29 11:10:30;;;;;;;0.52;0.52;;;;;;;8.98;69.56;97082.25;5014475;28;20116;-74
2023/12/29 11:12:58;;;;;;;0.40;0.40;;;;;;;8.95;69.45;97082.66;5026722;22;20050;-75
2023/12/29 11:15:28;;;;;;;0.30;0.30;;;;;;;8.95;69.69;97089.81;4990233;28;20122;-76
2023/12/29 11:17:57;;;;;;;0.20;0.20;;;;;;;8.96;69.50;97078.97;5007176;28;20061;-75
2023/12/29 11:20:26;;;;;;;0.28;0.28;;;;;;;8.97;69.42;97088.59;4995898;28;20498;-76
2023/12/29 11:22:54;;;;;;;0.10;0.10;;;;;;;8.97;69.36;97085.94;4993714;28;20423;-75
2023/12/29 11:25:22;;;;;;;0.30;0.30;;;;;;;8.96;69.54;97075.47;5000450;28;20097;-77
2023/12/29 11:27:51;;;;;;;0.30;0.30;;;;;;;8.97;69.54;97077.97;4991286;28;20045;-73
2023/12/29 11:30:19;;;;;;;0.20;0.20;;;;;;;9.02;69.39;97083.53;4999025;28;20046;-76
2023/12/29 11:32:52;;;;;;;0.15;0.15;;;;;;;8.97;69.43;97077.13;5003743;28;20046;-74
2023/12/29 11:35:24;;;;;;;0.30;0.30;;;;;;;8.97;69.11;97085.94;5003913;28;20066;-74
2023/12/29 11:38:04;;;;;;;0.20;0.20;;;;;;;8.96;69.51;97078.16;4993650;28;20446;-74
2023/12/29 11:40:35;;;;;;;0.20;0.20;;;;;;;8.98;69.35;97084.09;5000477;28;20053;-74
2023/12/29 11:43:08;;;;;;;0.30;0.30;;;;;;;9.00;68.53;97080.22;5004193;28;20117;-75
2023/12/29 11:45:37;;;;;;;0.17;0.17;;;;;;;9.04;68.61;97075.31;4999434;28;20126;-74
2023/12/29 11:48:07;;;;;;;0.30;0.30;;;;;;;9.05;68.61;97077.78;5002109;28;20125;-74